sensor_id;sensor_type;location;lat;lon;timestamp;temperature;humidity
22069;DHT22;13887;57.196;-2.100;2023-04-26T00:01:58;5.30;70.75
22069;DHT22;13887;57.196;-2.100;2023-04-26T00:04:26;5.26;70.88
22069;DHT22;13887;57.196;-2.100;2023-04-26T00:06:55;5.25;70.87
22069;DHT22;13887;57.196;-2.100;2023-04-26T00:09:22;5.26;70.91
22069;DHT22;13887;57.196;-2.100;2023-04-26T00:11:48;5.26;70.84
22069;DHT22;13887;57.196;-2.100;2023-04-26T00:14:15;5.26;70.82
22069;DHT22;13887;57.196;-2.100;2023-04-26T00:16:42;5.22;70.96
22069;DHT22;13887;57.196;-2.100;2023-04-26T00:19:09;5.22;70.87
22069;DHT22;13887;57.196;-2.100;2023-04-26T00:21:38;5.20;70.98
22069;DHT22;13887;57.196;-2.100;2023-04-26T00:24:06;5.18;71.03
22069;DHT22;13887;57.196;-2.100;2023-04-26T00:26:33;5.17;70.97
22069;DHT22;13887;57.196;-2.100;2023-04-26T00:29:01;5.16;70.90
22069;DHT22;13887;57.196;-2.100;2023-04-26T00:31:29;5.17;70.87
22069;DHT22;13887;57.196;-2.100;2023-04-26T00:33:56;5.12;70.92
22069;DHT22;13887;57.196;-2.100;2023-04-26T00:36:23;5.11;70.97
22069;DHT22;13887;57.196;-2.100;2023-04-26T00:38:51;5.10;70.87
22069;DHT22;13887;57.196;-2.100;2023-04-26T00:41:18;5.13;70.84
22069;DHT22;13887;57.196;-2.100;2023-04-26T00:43:45;5.09;70.95
22069;DHT22;13887;57.196;-2.100;2023-04-26T00:46:12;5.12;70.74
22069;DHT22;13887;57.196;-2.100;2023-04-26T00:48:40;5.08;70.86
22069;DHT22;13887;57.196;-2.100;2023-04-26T00:51:06;5.08;70.92
22069;DHT22;13887;57.196;-2.100;2023-04-26T00:53:34;5.06;70.83
22069;DHT22;13887;57.196;-2.100;2023-04-26T00:56:01;5.08;70.92
22069;DHT22;13887;57.196;-2.100;2023-04-26T00:58:29;5.07;70.87
22069;DHT22;13887;57.196;-2.100;2023-04-26T01:00:57;5.04;70.88
22069;DHT22;13887;57.196;-2.100;2023-04-26T01:03:24;5.04;70.85
22069;DHT22;13887;57.196;-2.100;2023-04-26T01:05:52;5.02;70.96
22069;DHT22;13887;57.196;-2.100;2023-04-26T01:08:20;5.01;70.87
22069;DHT22;13887;57.196;-2.100;2023-04-26T01:10:49;4.94;71.00
22069;DHT22;13887;57.196;-2.100;2023-04-26T01:13:16;4.94;71.02
22069;DHT22;13887;57.196;-2.100;2023-04-26T01:15:46;4.94;70.87
22069;DHT22;13887;57.196;-2.100;2023-04-26T01:18:14;4.91;70.90
22069;DHT22;13887;57.196;-2.100;2023-04-26T01:20:41;4.93;70.97
22069;DHT22;13887;57.196;-2.100;2023-04-26T01:23:09;4.90;71.03
22069;DHT22;13887;57.196;-2.100;2023-04-26T01:25:37;4.84;70.97
22069;DHT22;13887;57.196;-2.100;2023-04-26T01:28:04;4.87;71.04
22069;DHT22;13887;57.196;-2.100;2023-04-26T01:30:31;4.87;70.90
22069;DHT22;13887;57.196;-2.100;2023-04-26T01:33:01;4.87;70.94
22069;DHT22;13887;57.196;-2.100;2023-04-26T01:35:29;4.82;71.04
22069;DHT22;13887;57.196;-2.100;2023-04-26T01:37:55;4.83;70.93
22069;DHT22;13887;57.196;-2.100;2023-04-26T01:40:22;4.83;70.90
22069;DHT22;13887;57.196;-2.100;2023-04-26T01:42:49;4.83;70.90
22069;DHT22;13887;57.196;-2.100;2023-04-26T01:45:16;4.86;70.80
22069;DHT22;13887;57.196;-2.100;2023-04-26T01:48:01;4.84;70.82
22069;DHT22;13887;57.196;-2.100;2023-04-26T01:50:30;4.81;70.85
22069;DHT22;13887;57.196;-2.100;2023-04-26T01:52:57;4.83;70.85
22069;DHT22;13887;57.196;-2.100;2023-04-26T01:55:24;4.79;70.94
22069;DHT22;13887;57.196;-2.100;2023-04-26T01:57:51;4.83;70.96
22069;DHT22;13887;57.196;-2.100;2023-04-26T02:00:18;4.80;71.00
22069;DHT22;13887;57.196;-2.100;2023-04-26T02:02:48;4.82;70.92
22069;DHT22;13887;57.196;-2.100;2023-04-26T02:05:15;4.80;70.95
22069;DHT22;13887;57.196;-2.100;2023-04-26T02:07:42;4.78;71.06
22069;DHT22;13887;57.196;-2.100;2023-04-26T02:10:09;4.80;70.97
22069;DHT22;13887;57.196;-2.100;2023-04-26T02:12:36;4.77;71.08
22069;DHT22;13887;57.196;-2.100;2023-04-26T02:15:03;4.78;71.10
22069;DHT22;13887;57.196;-2.100;2023-04-26T02:17:30;4.76;71.00
22069;DHT22;13887;57.196;-2.100;2023-04-26T02:19:58;4.76;71.09
22069;DHT22;13887;57.196;-2.100;2023-04-26T02:22:24;4.74;71.06
22069;DHT22;13887;57.196;-2.100;2023-04-26T02:24:52;4.73;71.16
22069;DHT22;13887;57.196;-2.100;2023-04-26T02:27:19;4.77;70.90
22069;DHT22;13887;57.196;-2.100;2023-04-26T02:29:46;4.75;71.00
22069;DHT22;13887;57.196;-2.100;2023-04-26T02:32:13;4.74;70.94
22069;DHT22;13887;57.196;-2.100;2023-04-26T02:34:40;4.73;70.92
22069;DHT22;13887;57.196;-2.100;2023-04-26T02:37:08;4.72;71.00
22069;DHT22;13887;57.196;-2.100;2023-04-26T02:39:35;4.74;70.92
22069;DHT22;13887;57.196;-2.100;2023-04-26T02:42:02;4.69;70.97
22069;DHT22;13887;57.196;-2.100;2023-04-26T02:44:29;4.67;71.01
22069;DHT22;13887;57.196;-2.100;2023-04-26T02:46:57;4.67;71.00
22069;DHT22;13887;57.196;-2.100;2023-04-26T02:49:24;4.68;70.98
22069;DHT22;13887;57.196;-2.100;2023-04-26T02:51:51;4.67;70.76
22069;DHT22;13887;57.196;-2.100;2023-04-26T02:54:18;4.65;70.65
22069;DHT22;13887;57.196;-2.100;2023-04-26T02:56:46;4.60;70.80
22069;DHT22;13887;57.196;-2.100;2023-04-26T02:59:13;4.56;70.97
22069;DHT22;13887;57.196;-2.100;2023-04-26T03:01:41;4.58;70.96
22069;DHT22;13887;57.196;-2.100;2023-04-26T03:04:08;4.59;70.87
22069;DHT22;13887;57.196;-2.100;2023-04-26T03:06:36;4.59;70.77
22069;DHT22;13887;57.196;-2.100;2023-04-26T03:09:03;4.61;70.82
22069;DHT22;13887;57.196;-2.100;2023-04-26T03:11:31;4.61;70.50
22069;DHT22;13887;57.196;-2.100;2023-04-26T03:13:58;4.54;70.82
22069;DHT22;13887;57.196;-2.100;2023-04-26T03:16:26;4.54;70.81
22069;DHT22;13887;57.196;-2.100;2023-04-26T03:18:54;4.49;71.08
22069;DHT22;13887;57.196;-2.100;2023-04-26T03:21:21;4.53;70.96
22069;DHT22;13887;57.196;-2.100;2023-04-26T03:23:48;4.54;70.81
22069;DHT22;13887;57.196;-2.100;2023-04-26T03:26:15;4.54;70.82
22069;DHT22;13887;57.196;-2.100;2023-04-26T03:28:42;4.52;70.82
22069;DHT22;13887;57.196;-2.100;2023-04-26T03:31:09;4.52;70.84
22069;DHT22;13887;57.196;-2.100;2023-04-26T03:33:36;4.47;70.94
22069;DHT22;13887;57.196;-2.100;2023-04-26T03:36:03;4.45;70.93
22069;DHT22;13887;57.196;-2.100;2023-04-26T03:38:31;4.48;70.87
22069;DHT22;13887;57.196;-2.100;2023-04-26T03:40:57;4.44;70.93
22069;DHT22;13887;57.196;-2.100;2023-04-26T03:43:24;4.44;70.94
22069;DHT22;13887;57.196;-2.100;2023-04-26T03:45:51;4.44;70.96
22069;DHT22;13887;57.196;-2.100;2023-04-26T03:48:18;4.47;70.92
22069;DHT22;13887;57.196;-2.100;2023-04-26T03:50:45;4.49;70.74
22069;DHT22;13887;57.196;-2.100;2023-04-26T03:53:12;4.50;70.69
22069;DHT22;13887;57.196;-2.100;2023-04-26T03:55:39;4.50;70.71
22069;DHT22;13887;57.196;-2.100;2023-04-26T03:58:07;4.47;70.76
22069;DHT22;13887;57.196;-2.100;2023-04-26T04:00:37;4.46;70.84
22069;DHT22;13887;57.196;-2.100;2023-04-26T04:03:08;4.47;70.75
22069;DHT22;13887;57.196;-2.100;2023-04-26T04:05:35;4.41;70.84
22069;DHT22;13887;57.196;-2.100;2023-04-26T04:08:03;4.41;70.91
22069;DHT22;13887;57.196;-2.100;2023-04-26T04:10:30;4.42;70.85
22069;DHT22;13887;57.196;-2.100;2023-04-26T04:12:57;4.42;70.71
22069;DHT22;13887;57.196;-2.100;2023-04-26T04:15:24;4.42;70.81
22069;DHT22;13887;57.196;-2.100;2023-04-26T04:17:53;4.42;70.83
22069;DHT22;13887;57.196;-2.100;2023-04-26T04:20:20;4.42;70.73
22069;DHT22;13887;57.196;-2.100;2023-04-26T04:22:47;4.41;70.83
22069;DHT22;13887;57.196;-2.100;2023-04-26T04:25:14;4.38;70.85
22069;DHT22;13887;57.196;-2.100;2023-04-26T04:27:42;4.36;70.84
22069;DHT22;13887;57.196;-2.100;2023-04-26T04:30:10;4.37;70.83
22069;DHT22;13887;57.196;-2.100;2023-04-26T04:32:38;4.37;70.81
22069;DHT22;13887;57.196;-2.100;2023-04-26T04:35:06;4.36;70.87
22069;DHT22;13887;57.196;-2.100;2023-04-26T04:37:34;4.36;70.79
22069;DHT22;13887;57.196;-2.100;2023-04-26T04:40:01;4.37;70.66
22069;DHT22;13887;57.196;-2.100;2023-04-26T04:42:30;4.37;70.74
22069;DHT22;13887;57.196;-2.100;2023-04-26T04:44:59;4.36;70.67
22069;DHT22;13887;57.196;-2.100;2023-04-26T04:47:27;4.36;70.68
22069;DHT22;13887;57.196;-2.100;2023-04-26T04:49:55;4.35;70.71
22069;DHT22;13887;57.196;-2.100;2023-04-26T04:52:21;4.34;70.70
22069;DHT22;13887;57.196;-2.100;2023-04-26T04:54:48;4.31;70.90
22069;DHT22;13887;57.196;-2.100;2023-04-26T04:57:15;4.32;70.79
22069;DHT22;13887;57.196;-2.100;2023-04-26T04:59:44;4.33;70.69
22069;DHT22;13887;57.196;-2.100;2023-04-26T05:02:11;4.28;70.82
22069;DHT22;13887;57.196;-2.100;2023-04-26T05:04:39;4.32;70.81
22069;DHT22;13887;57.196;-2.100;2023-04-26T05:07:06;4.33;70.66
22069;DHT22;13887;57.196;-2.100;2023-04-26T05:09:34;4.33;70.71
22069;DHT22;13887;57.196;-2.100;2023-04-26T05:12:01;4.34;70.71
22069;DHT22;13887;57.196;-2.100;2023-04-26T05:14:29;4.34;70.61
22069;DHT22;13887;57.196;-2.100;2023-04-26T05:16:55;4.30;70.84
22069;DHT22;13887;57.196;-2.100;2023-04-26T05:19:24;4.31;70.71
22069;DHT22;13887;57.196;-2.100;2023-04-26T05:21:51;4.30;70.77
22069;DHT22;13887;57.196;-2.100;2023-04-26T05:24:18;4.31;70.68
22069;DHT22;13887;57.196;-2.100;2023-04-26T05:26:45;4.33;70.71
22069;DHT22;13887;57.196;-2.100;2023-04-26T05:29:29;4.37;70.59
22069;DHT22;13887;57.196;-2.100;2023-04-26T05:32:13;4.39;70.64
22069;DHT22;13887;57.196;-2.100;2023-04-26T05:34:51;4.36;70.63
22069;DHT22;13887;57.196;-2.100;2023-04-26T05:37:18;4.37;70.74
22069;DHT22;13887;57.196;-2.100;2023-04-26T05:39:45;4.39;70.61
22069;DHT22;13887;57.196;-2.100;2023-04-26T05:42:12;4.41;70.61
22069;DHT22;13887;57.196;-2.100;2023-04-26T05:44:39;4.38;70.74
22069;DHT22;13887;57.196;-2.100;2023-04-26T05:47:07;4.41;70.84
22069;DHT22;13887;57.196;-2.100;2023-04-26T05:49:34;4.36;70.87
22069;DHT22;13887;57.196;-2.100;2023-04-26T05:52:01;4.37;70.95
22069;DHT22;13887;57.196;-2.100;2023-04-26T05:54:29;4.38;70.94
22069;DHT22;13887;57.196;-2.100;2023-04-26T05:56:56;4.41;70.90
22069;DHT22;13887;57.196;-2.100;2023-04-26T05:59:27;4.42;70.88
22069;DHT22;13887;57.196;-2.100;2023-04-26T06:01:53;4.41;70.88
22069;DHT22;13887;57.196;-2.100;2023-04-26T06:04:21;4.42;70.96
22069;DHT22;13887;57.196;-2.100;2023-04-26T06:07:08;4.45;70.87
22069;DHT22;13887;57.196;-2.100;2023-04-26T06:09:35;4.44;70.94
22069;DHT22;13887;57.196;-2.100;2023-04-26T06:12:02;4.41;71.06
22069;DHT22;13887;57.196;-2.100;2023-04-26T06:14:32;4.41;71.22
22069;DHT22;13887;57.196;-2.100;2023-04-26T06:17:04;4.37;71.31
22069;DHT22;13887;57.196;-2.100;2023-04-26T06:19:32;4.38;71.25
22069;DHT22;13887;57.196;-2.100;2023-04-26T06:21:58;4.37;71.35
22069;DHT22;13887;57.196;-2.100;2023-04-26T06:24:26;4.39;71.32
22069;DHT22;13887;57.196;-2.100;2023-04-26T06:26:53;4.39;71.31
22069;DHT22;13887;57.196;-2.100;2023-04-26T06:29:20;4.39;71.34
22069;DHT22;13887;57.196;-2.100;2023-04-26T06:31:47;4.39;71.41
22069;DHT22;13887;57.196;-2.100;2023-04-26T06:34:14;4.39;71.45
22069;DHT22;13887;57.196;-2.100;2023-04-26T06:36:41;4.37;71.54
22069;DHT22;13887;57.196;-2.100;2023-04-26T06:39:09;4.38;71.48
22069;DHT22;13887;57.196;-2.100;2023-04-26T06:41:38;4.37;71.62
22069;DHT22;13887;57.196;-2.100;2023-04-26T06:44:05;4.39;71.60
22069;DHT22;13887;57.196;-2.100;2023-04-26T06:46:32;4.39;71.59
22069;DHT22;13887;57.196;-2.100;2023-04-26T06:49:00;4.39;71.67
22069;DHT22;13887;57.196;-2.100;2023-04-26T06:51:27;4.41;71.71
22069;DHT22;13887;57.196;-2.100;2023-04-26T06:53:55;4.36;71.96
22069;DHT22;13887;57.196;-2.100;2023-04-26T06:56:24;4.35;72.07
22069;DHT22;13887;57.196;-2.100;2023-04-26T06:58:59;4.37;72.12
22069;DHT22;13887;57.196;-2.100;2023-04-26T07:01:27;4.41;72.04
22069;DHT22;13887;57.196;-2.100;2023-04-26T07:03:55;4.46;71.99
22069;DHT22;13887;57.196;-2.100;2023-04-26T07:06:25;4.48;71.90
22069;DHT22;13887;57.196;-2.100;2023-04-26T07:08:52;4.48;71.94
22069;DHT22;13887;57.196;-2.100;2023-04-26T07:11:19;4.48;72.07
22069;DHT22;13887;57.196;-2.100;2023-04-26T07:13:48;4.51;72.04
22069;DHT22;13887;57.196;-2.100;2023-04-26T07:16:15;4.51;72.20
22069;DHT22;13887;57.196;-2.100;2023-04-26T07:18:42;4.52;72.25
22069;DHT22;13887;57.196;-2.100;2023-04-26T07:21:09;4.54;72.35
22069;DHT22;13887;57.196;-2.100;2023-04-26T07:23:36;4.57;72.38
22069;DHT22;13887;57.196;-2.100;2023-04-26T07:26:04;4.54;72.29
22069;DHT22;13887;57.196;-2.100;2023-04-26T07:28:31;4.56;72.43
22069;DHT22;13887;57.196;-2.100;2023-04-26T07:30:59;4.57;72.34
22069;DHT22;13887;57.196;-2.100;2023-04-26T07:33:26;4.61;72.42
22069;DHT22;13887;57.196;-2.100;2023-04-26T07:35:57;4.59;72.54
22069;DHT22;13887;57.196;-2.100;2023-04-26T07:38:25;4.61;72.53
22069;DHT22;13887;57.196;-2.100;2023-04-26T07:40:52;4.63;72.54
22069;DHT22;13887;57.196;-2.100;2023-04-26T07:43:19;4.62;72.60
22069;DHT22;13887;57.196;-2.100;2023-04-26T07:45:46;4.65;72.58
22069;DHT22;13887;57.196;-2.100;2023-04-26T07:48:13;4.63;72.58
22069;DHT22;13887;57.196;-2.100;2023-04-26T07:50:40;4.65;72.64
22069;DHT22;13887;57.196;-2.100;2023-04-26T07:53:07;4.68;72.54
22069;DHT22;13887;57.196;-2.100;2023-04-26T07:55:34;4.71;72.52
22069;DHT22;13887;57.196;-2.100;2023-04-26T07:58:03;4.68;72.47
22069;DHT22;13887;57.196;-2.100;2023-04-26T08:00:30;4.72;72.38
22069;DHT22;13887;57.196;-2.100;2023-04-26T08:02:56;4.73;72.29
22069;DHT22;13887;57.196;-2.100;2023-04-26T08:05:24;4.75;72.35
22069;DHT22;13887;57.196;-2.100;2023-04-26T08:07:51;4.74;72.17
22069;DHT22;13887;57.196;-2.100;2023-04-26T08:10:18;4.75;72.29
22069;DHT22;13887;57.196;-2.100;2023-04-26T08:12:45;4.75;72.27
22069;DHT22;13887;57.196;-2.100;2023-04-26T08:15:12;4.77;72.09
22069;DHT22;13887;57.196;-2.100;2023-04-26T08:17:38;4.78;71.93
22069;DHT22;13887;57.196;-2.100;2023-04-26T08:20:06;4.78;72.03
22069;DHT22;13887;57.196;-2.100;2023-04-26T08:22:35;4.79;71.93
22069;DHT22;13887;57.196;-2.100;2023-04-26T08:25:02;4.81;71.54
22069;DHT22;13887;57.196;-2.100;2023-04-26T08:27:30;4.82;71.28
22069;DHT22;13887;57.196;-2.100;2023-04-26T08:29:57;4.82;71.32
22069;DHT22;13887;57.196;-2.100;2023-04-26T08:32:24;4.83;71.20
22069;DHT22;13887;57.196;-2.100;2023-04-26T08:34:51;4.83;71.00
22069;DHT22;13887;57.196;-2.100;2023-04-26T08:37:18;4.87;70.81
22069;DHT22;13887;57.196;-2.100;2023-04-26T08:39:45;4.87;71.16
22069;DHT22;13887;57.196;-2.100;2023-04-26T08:42:14;4.89;70.47
22069;DHT22;13887;57.196;-2.100;2023-04-26T08:44:43;4.90;70.13
22069;DHT22;13887;57.196;-2.100;2023-04-26T08:49:57;4.90;69.62
22069;DHT22;13887;57.196;-2.100;2023-04-26T08:52:30;4.91;69.56
22069;DHT22;13887;57.196;-2.100;2023-04-26T08:54:59;4.92;69.66
22069;DHT22;13887;57.196;-2.100;2023-04-26T08:57:26;4.92;69.12
22069;DHT22;13887;57.196;-2.100;2023-04-26T08:59:55;4.92;69.10
22069;DHT22;13887;57.196;-2.100;2023-04-26T09:02:24;4.93;69.29
22069;DHT22;13887;57.196;-2.100;2023-04-26T09:04:51;4.94;69.23
22069;DHT22;13887;57.196;-2.100;2023-04-26T09:07:46;4.96;69.59
22069;DHT22;13887;57.196;-2.100;2023-04-26T09:10:17;4.97;69.29
22069;DHT22;13887;57.196;-2.100;2023-04-26T09:12:54;4.97;69.09
22069;DHT22;13887;57.196;-2.100;2023-04-26T09:15:23;5.01;68.69
22069;DHT22;13887;57.196;-2.100;2023-04-26T09:17:50;5.01;68.13
22069;DHT22;13887;57.196;-2.100;2023-04-26T09:22:50;5.04;67.72
22069;DHT22;13887;57.196;-2.100;2023-04-26T09:25:26;5.05;67.82
22069;DHT22;13887;57.196;-2.100;2023-04-26T09:27:53;5.04;67.55
22069;DHT22;13887;57.196;-2.100;2023-04-26T09:30:20;5.04;66.33
22069;DHT22;13887;57.196;-2.100;2023-04-26T09:32:53;5.08;67.00
22069;DHT22;13887;57.196;-2.100;2023-04-26T09:40:48;5.13;66.90
22069;DHT22;13887;57.196;-2.100;2023-04-26T09:43:17;5.15;65.66
22069;DHT22;13887;57.196;-2.100;2023-04-26T09:48:20;5.18;66.10
22069;DHT22;13887;57.196;-2.100;2023-04-26T09:50:50;5.18;66.27
22069;DHT22;13887;57.196;-2.100;2023-04-26T09:53:31;5.19;66.20
22069;DHT22;13887;57.196;-2.100;2023-04-26T09:58:39;5.25;65.57
22069;DHT22;13887;57.196;-2.100;2023-04-26T10:01:07;5.24;65.27
22069;DHT22;13887;57.196;-2.100;2023-04-26T10:03:34;5.26;65.50
22069;DHT22;13887;57.196;-2.100;2023-04-26T10:06:03;5.26;65.66
22069;DHT22;13887;57.196;-2.100;2023-04-26T10:08:31;5.25;66.36
22069;DHT22;13887;57.196;-2.100;2023-04-26T10:11:02;5.25;66.46
22069;DHT22;13887;57.196;-2.100;2023-04-26T10:13:33;5.27;65.72
22069;DHT22;13887;57.196;-2.100;2023-04-26T10:16:01;5.26;65.71
22069;DHT22;13887;57.196;-2.100;2023-04-26T10:18:30;5.28;66.06
22069;DHT22;13887;57.196;-2.100;2023-04-26T10:21:01;5.30;65.18
22069;DHT22;13887;57.196;-2.100;2023-04-26T10:23:29;5.32;65.78
22069;DHT22;13887;57.196;-2.100;2023-04-26T10:25:57;5.33;65.95
22069;DHT22;13887;57.196;-2.100;2023-04-26T10:31:06;5.39;66.80
22069;DHT22;13887;57.196;-2.100;2023-04-26T10:33:33;5.41;66.83
22069;DHT22;13887;57.196;-2.100;2023-04-26T10:36:07;5.40;66.60
22069;DHT22;13887;57.196;-2.100;2023-04-26T10:38:36;5.45;66.47
22069;DHT22;13887;57.196;-2.100;2023-04-26T10:44:36;5.53;66.25
22069;DHT22;13887;57.196;-2.100;2023-04-26T10:46:50;5.56;66.23
22069;DHT22;13887;57.196;-2.100;2023-04-26T10:49:20;5.59;66.49
22069;DHT22;13887;57.196;-2.100;2023-04-26T10:52:11;5.53;66.07
22069;DHT22;13887;57.196;-2.100;2023-04-26T10:57:14;5.95;61.68
22069;DHT22;13887;57.196;-2.100;2023-04-26T11:05:50;5.68;65.68
22069;DHT22;13887;57.196;-2.100;2023-04-26T11:08:19;5.69;65.33
22069;DHT22;13887;57.196;-2.100;2023-04-26T11:10:56;5.71;65.21
22069;DHT22;13887;57.196;-2.100;2023-04-26T11:13:23;5.71;65.51
22069;DHT22;13887;57.196;-2.100;2023-04-26T11:15:58;5.71;65.27
22069;DHT22;13887;57.196;-2.100;2023-04-26T11:18:25;5.70;65.02
22069;DHT22;13887;57.196;-2.100;2023-04-26T11:20:52;5.71;64.39
22069;DHT22;13887;57.196;-2.100;2023-04-26T11:23:19;5.71;64.38
22069;DHT22;13887;57.196;-2.100;2023-04-26T11:25:46;5.71;64.39
22069;DHT22;13887;57.196;-2.100;2023-04-26T11:28:14;5.71;63.96
22069;DHT22;13887;57.196;-2.100;2023-04-26T11:30:42;5.71;64.08
22069;DHT22;13887;57.196;-2.100;2023-04-26T11:33:16;5.72;64.21
22069;DHT22;13887;57.196;-2.100;2023-04-26T11:35:48;5.76;65.11
22069;DHT22;13887;57.196;-2.100;2023-04-26T11:38:15;5.79;65.32
22069;DHT22;13887;57.196;-2.100;2023-04-26T11:40:42;5.77;64.98
22069;DHT22;13887;57.196;-2.100;2023-04-26T11:43:10;5.80;65.21
22069;DHT22;13887;57.196;-2.100;2023-04-26T11:45:37;5.82;64.47
22069;DHT22;13887;57.196;-2.100;2023-04-26T11:48:09;5.81;63.90
22069;DHT22;13887;57.196;-2.100;2023-04-26T11:50:38;5.82;63.88
22069;DHT22;13887;57.196;-2.100;2023-04-26T11:53:07;5.86;64.10
22069;DHT22;13887;57.196;-2.100;2023-04-26T11:55:34;5.91;64.20
22069;DHT22;13887;57.196;-2.100;2023-04-26T11:58:09;5.96;63.98
22069;DHT22;13887;57.196;-2.100;2023-04-26T12:01:00;5.94;63.41
22069;DHT22;13887;57.196;-2.100;2023-04-26T12:03:31;5.95;64.34
22069;DHT22;13887;57.196;-2.100;2023-04-26T12:06:01;5.97;64.48
22069;DHT22;13887;57.196;-2.100;2023-04-26T12:08:28;5.97;64.05
22069;DHT22;13887;57.196;-2.100;2023-04-26T12:11:00;6.01;64.80
22069;DHT22;13887;57.196;-2.100;2023-04-26T12:13:28;6.01;64.94
22069;DHT22;13887;57.196;-2.100;2023-04-26T12:15:55;6.02;64.34
22069;DHT22;13887;57.196;-2.100;2023-04-26T12:18:29;6.01;64.68
22069;DHT22;13887;57.196;-2.100;2023-04-26T12:20:59;6.01;65.24
22069;DHT22;13887;57.196;-2.100;2023-04-26T12:23:35;6.04;65.70
22069;DHT22;13887;57.196;-2.100;2023-04-26T12:26:02;6.05;66.55
22069;DHT22;13887;57.196;-2.100;2023-04-26T12:28:30;6.06;66.44
22069;DHT22;13887;57.196;-2.100;2023-04-26T12:30:57;6.07;66.32
22069;DHT22;13887;57.196;-2.100;2023-04-26T12:33:24;6.09;66.50
22069;DHT22;13887;57.196;-2.100;2023-04-26T12:35:51;6.08;67.01
22069;DHT22;13887;57.196;-2.100;2023-04-26T12:38:17;6.09;67.31
22069;DHT22;13887;57.196;-2.100;2023-04-26T12:40:45;6.09;67.40
22069;DHT22;13887;57.196;-2.100;2023-04-26T12:43:12;6.09;67.51
22069;DHT22;13887;57.196;-2.100;2023-04-26T12:45:39;6.11;67.63
22069;DHT22;13887;57.196;-2.100;2023-04-26T12:48:06;6.09;67.81
22069;DHT22;13887;57.196;-2.100;2023-04-26T12:50:33;6.09;67.95
22069;DHT22;13887;57.196;-2.100;2023-04-26T12:53:00;6.07;68.10
22069;DHT22;13887;57.196;-2.100;2023-04-26T12:55:27;6.10;68.20
22069;DHT22;13887;57.196;-2.100;2023-04-26T12:57:58;6.07;68.49
22069;DHT22;13887;57.196;-2.100;2023-04-26T13:00:24;6.10;68.69
22069;DHT22;13887;57.196;-2.100;2023-04-26T13:02:52;6.11;69.20
22069;DHT22;13887;57.196;-2.100;2023-04-26T13:05:21;6.09;69.65
22069;DHT22;13887;57.196;-2.100;2023-04-26T13:07:50;6.09;69.99
22069;DHT22;13887;57.196;-2.100;2023-04-26T13:10:17;6.08;70.29
22069;DHT22;13887;57.196;-2.100;2023-04-26T13:12:44;6.12;70.68
22069;DHT22;13887;57.196;-2.100;2023-04-26T13:15:11;6.14;70.49
22069;DHT22;13887;57.196;-2.100;2023-04-26T13:17:38;6.13;71.95
22069;DHT22;13887;57.196;-2.100;2023-04-26T13:20:05;6.15;72.21
22069;DHT22;13887;57.196;-2.100;2023-04-26T13:22:33;6.17;72.58
22069;DHT22;13887;57.196;-2.100;2023-04-26T13:25:00;6.22;73.37
22069;DHT22;13887;57.196;-2.100;2023-04-26T13:27:27;6.24;73.09
22069;DHT22;13887;57.196;-2.100;2023-04-26T13:29:57;6.26;73.67
22069;DHT22;13887;57.196;-2.100;2023-04-26T13:32:24;6.26;73.77
22069;DHT22;13887;57.196;-2.100;2023-04-26T13:34:51;6.25;73.50
22069;DHT22;13887;57.196;-2.100;2023-04-26T13:37:18;6.25;74.34
22069;DHT22;13887;57.196;-2.100;2023-04-26T13:39:47;6.23;74.80
22069;DHT22;13887;57.196;-2.100;2023-04-26T13:42:14;6.23;74.35
22069;DHT22;13887;57.196;-2.100;2023-04-26T13:44:42;6.24;74.79
22069;DHT22;13887;57.196;-2.100;2023-04-26T13:47:10;6.25;74.80
22069;DHT22;13887;57.196;-2.100;2023-04-26T13:49:38;6.27;75.09
22069;DHT22;13887;57.196;-2.100;2023-04-26T13:52:10;6.28;75.58
22069;DHT22;13887;57.196;-2.100;2023-04-26T13:54:37;6.27;75.70
22069;DHT22;13887;57.196;-2.100;2023-04-26T13:57:05;6.27;75.85
22069;DHT22;13887;57.196;-2.100;2023-04-26T13:59:32;6.28;76.36
22069;DHT22;13887;57.196;-2.100;2023-04-26T14:01:59;6.29;76.57
22069;DHT22;13887;57.196;-2.100;2023-04-26T14:04:26;6.30;76.18
22069;DHT22;13887;57.196;-2.100;2023-04-26T14:06:53;6.33;76.37
22069;DHT22;13887;57.196;-2.100;2023-04-26T14:09:20;6.36;76.35
22069;DHT22;13887;57.196;-2.100;2023-04-26T14:11:47;6.33;76.82
22069;DHT22;13887;57.196;-2.100;2023-04-26T14:14:32;6.31;76.31
22069;DHT22;13887;57.196;-2.100;2023-04-26T14:16:59;6.31;76.40
22069;DHT22;13887;57.196;-2.100;2023-04-26T14:19:26;6.35;76.92
22069;DHT22;13887;57.196;-2.100;2023-04-26T14:21:53;6.36;77.30
22069;DHT22;13887;57.196;-2.100;2023-04-26T14:24:20;6.38;76.96
22069;DHT22;13887;57.196;-2.100;2023-04-26T14:26:46;6.34;76.97
22069;DHT22;13887;57.196;-2.100;2023-04-26T14:29:13;6.35;77.16
22069;DHT22;13887;57.196;-2.100;2023-04-26T14:31:41;6.34;76.89
22069;DHT22;13887;57.196;-2.100;2023-04-26T14:34:08;6.39;76.92
22069;DHT22;13887;57.196;-2.100;2023-04-26T14:36:34;6.41;76.64
22069;DHT22;13887;57.196;-2.100;2023-04-26T14:39:02;6.43;76.50
22069;DHT22;13887;57.196;-2.100;2023-04-26T14:41:29;6.46;76.50
22069;DHT22;13887;57.196;-2.100;2023-04-26T14:43:56;6.51;75.47
22069;DHT22;13887;57.196;-2.100;2023-04-26T14:46:23;6.46;75.88
22069;DHT22;13887;57.196;-2.100;2023-04-26T14:48:50;6.46;75.65
22069;DHT22;13887;57.196;-2.100;2023-04-26T14:51:17;6.46;75.84
22069;DHT22;13887;57.196;-2.100;2023-04-26T14:53:43;6.48;75.85
22069;DHT22;13887;57.196;-2.100;2023-04-26T14:56:10;6.48;75.89
22069;DHT22;13887;57.196;-2.100;2023-04-26T14:58:37;6.51;75.66
22069;DHT22;13887;57.196;-2.100;2023-04-26T15:01:04;6.52;75.74
22069;DHT22;13887;57.196;-2.100;2023-04-26T15:03:31;6.49;75.72
22069;DHT22;13887;57.196;-2.100;2023-04-26T15:05:59;6.51;75.73
22069;DHT22;13887;57.196;-2.100;2023-04-26T15:08:26;6.53;75.31
22069;DHT22;13887;57.196;-2.100;2023-04-26T15:10:53;6.54;75.18
22069;DHT22;13887;57.196;-2.100;2023-04-26T15:13:20;6.53;75.03
22069;DHT22;13887;57.196;-2.100;2023-04-26T15:15:46;6.53;75.02
22069;DHT22;13887;57.196;-2.100;2023-04-26T15:18:13;6.54;74.95
22069;DHT22;13887;57.196;-2.100;2023-04-26T15:20:40;6.57;74.87
22069;DHT22;13887;57.196;-2.100;2023-04-26T15:23:07;6.60;74.60
22069;DHT22;13887;57.196;-2.100;2023-04-26T15:25:35;6.58;74.61
22069;DHT22;13887;57.196;-2.100;2023-04-26T15:28:03;6.58;74.48
22069;DHT22;13887;57.196;-2.100;2023-04-26T15:30:30;6.60;74.27
22069;DHT22;13887;57.196;-2.100;2023-04-26T15:32:57;6.60;74.52
22069;DHT22;13887;57.196;-2.100;2023-04-26T15:35:24;6.60;74.44
22069;DHT22;13887;57.196;-2.100;2023-04-26T15:37:51;6.59;74.44
22069;DHT22;13887;57.196;-2.100;2023-04-26T15:40:20;6.57;74.22
22069;DHT22;13887;57.196;-2.100;2023-04-26T15:42:48;6.54;73.73
22069;DHT22;13887;57.196;-2.100;2023-04-26T15:45:17;6.56;73.67
22069;DHT22;13887;57.196;-2.100;2023-04-26T15:47:45;6.57;73.50
22069;DHT22;13887;57.196;-2.100;2023-04-26T15:50:13;6.58;73.48
22069;DHT22;13887;57.196;-2.100;2023-04-26T15:52:40;6.56;73.70
22069;DHT22;13887;57.196;-2.100;2023-04-26T15:55:07;6.54;73.42
22069;DHT22;13887;57.196;-2.100;2023-04-26T15:57:34;6.53;73.52
22069;DHT22;13887;57.196;-2.100;2023-04-26T16:00:01;6.53;73.44
22069;DHT22;13887;57.196;-2.100;2023-04-26T16:02:29;6.53;73.22
22069;DHT22;13887;57.196;-2.100;2023-04-26T16:04:56;6.53;73.13
22069;DHT22;13887;57.196;-2.100;2023-04-26T16:07:24;6.53;72.93